Time;durP1;ratioP1;P1;durP2;ratioP2;P2;SDS_P1;SDS_P2;PMS_P1;PMS_P2;Temp;Humidity;BMP_temperature;BMP_pressure;BME280_temperature;BME280_humidity;BME280_pressure;Samples;Min_cycle;Max_cycle;Signal;HPM_P1;HPM_P2
2022/03/14 00:00:11;;;;;;;4.40;1.30;;;;;;;8.64;47.70;102438.00;2101779;28;20048;-79
2022/03/14 00:01:36;;;;;;;4.85;1.27;;;;;;;8.65;47.69;102430.19;2110570;28;20040;-78
2022/03/14 00:03:02;;;;;;;3.40;1.60;;;;;;;8.67;47.63;102435.50;2103638;28;20076;-79
2022/03/14 00:04:26;;;;;;;1.40;1.08;;;;;;;8.64;47.87;102430.09;2110543;28;20534;-79
2022/03/14 00:05:49;;;;;;;2.00;1.20;;;;;;;8.59;48.23;102435.13;2106353;28;20074;-79
2022/03/14 00:07:13;;;;;;;3.35;1.23;;;;;;;8.56;48.01;102440.22;2109447;28;20043;-79
2022/03/14 00:08:34;;;;;;;1.55;0.80;;;;;;;8.52;48.14;102430.38;2106169;28;20040;-78
2022/03/14 00:09:57;;;;;;;2.13;1.15;;;;;;;8.50;47.84;102434.66;2109237;28;20503;-79
2022/03/14 00:11:19;;;;;;;2.65;1.48;;;;;;;8.49;48.01;102424.94;2112297;28;20441;-78
2022/03/14 00:12:42;;;;;;;3.35;1.20;;;;;;;8.51;47.88;102430.31;2103643;28;20126;-79
2022/03/14 00:14:06;;;;;;;2.72;1.63;;;;;;;8.53;47.77;102434.84;2103706;28;20151;-78
2022/03/14 00:15:30;;;;;;;2.30;1.33;;;;;;;8.56;47.82;102432.34;2109884;28;20047;-79
2022/03/14 00:16:55;;;;;;;2.80;1.17;;;;;;;8.54;47.84;102431.34;2103819;28;20110;-79
2022/03/14 00:18:18;;;;;;;3.47;1.30;;;;;;;8.54;47.74;102427.81;2109804;28;20176;-79
2022/03/14 00:19:41;;;;;;;2.67;1.48;;;;;;;8.54;47.93;102430.44;2112000;28;20039;-79
2022/03/14 00:21:05;;;;;;;2.70;1.17;;;;;;;8.54;47.91;102436.59;2103657;28;20076;-79
2022/03/14 00:22:29;;;;;;;2.30;1.50;;;;;;;8.55;48.20;102430.53;2095573;28;20146;-79
2022/03/14 00:23:53;;;;;;;2.20;1.60;;;;;;;8.56;48.00;102426.16;2101097;28;20130;-78
2022/03/14 00:25:14;;;;;;;3.00;1.30;;;;;;;8.58;47.91;102433.31;2092850;28;20074;-78
2022/03/14 00:26:37;;;;;;;3.25;1.30;;;;;;;8.59;48.00;102428.97;2106424;28;20052;-78
2022/03/14 00:28:01;;;;;;;3.70;1.40;;;;;;;8.59;47.89;102428.97;2111972;28;20055;-79
2022/03/14 00:29:24;;;;;;;5.88;1.40;;;;;;;8.59;48.11;102418.44;2106044;28;20167;-79
2022/03/14 00:30:46;;;;;;;3.85;1.35;;;;;;;8.59;47.96;102419.34;2111990;28;20083;-79
2022/03/14 00:32:09;;;;;;;5.63;1.67;;;;;;;8.61;48.19;102425.56;2103723;28;20138;-79
2022/03/14 00:33:30;;;;;;;7.20;2.92;;;;;;;8.64;47.86;102422.19;2107672;28;20139;-79
2022/03/14 00:34:53;;;;;;;2.72;1.10;;;;;;;8.64;47.84;102420.47;2105039;28;20044;-78
2022/03/14 00:36:14;;;;;;;3.83;2.35;;;;;;;8.66;47.65;102420.56;2102414;28;20131;-79
2022/03/14 00:37:39;;;;;;;3.38;1.70;;;;;;;8.69;47.82;102418.97;2102151;28;20156;-78
2022/03/14 00:39:02;;;;;;;4.22;1.90;;;;;;;8.69;47.71;102416.31;2102903;28;20051;-79
2022/03/14 00:40:23;;;;;;;2.40;1.50;;;;;;;8.68;47.76;102417.16;2096865;28;20095;-79
2022/03/14 00:41:49;;;;;;;3.40;1.35;;;;;;;8.68;47.84;102417.16;2111184;28;20046;-80
2022/03/14 00:43:10;;;;;;;3.45;1.30;;;;;;;8.70;47.72;102419.88;2096696;28;20044;-79
2022/03/14 00:44:33;;;;;;;3.70;1.88;;;;;;;8.69;47.65;102408.44;2102160;28;20063;-79
2022/03/14 00:45:54;;;;;;;4.50;1.65;;;;;;;8.68;47.68;102413.63;2113525;28;20047;-80
2022/03/14 00:47:17;;;;;;;4.88;1.55;;;;;;;8.67;47.74;102419.69;2105091;28;20102;-79
2022/03/14 00:48:39;;;;;;;3.25;1.50;;;;;;;8.67;47.80;102419.69;2113574;28;20466;-79
2022/03/14 00:50:02;;;;;;;4.38;1.70;;;;;;;8.65;47.76;102418.75;2105007;28;20067;-80
2022/03/14 00:51:25;;;;;;;3.90;1.90;;;;;;;8.65;47.92;102418.75;2102697;28;20132;-79
2022/03/14 00:52:49;;;;;;;4.68;1.67;;;;;;;8.66;47.78;102416.16;2111107;28;20077;-79
2022/03/14 00:54:12;;;;;;;10.18;3.47;;;;;;;8.67;48.09;102422.31;2105241;28;20044;-79
2022/03/14 00:55:35;;;;;;;4.70;2.35;;;;;;;8.67;47.89;102420.59;2102560;28;20044;-79
2022/03/14 00:56:57;;;;;;;4.00;1.80;;;;;;;8.68;47.78;102414.50;2102547;28;20093;-79
2022/03/14 00:58:18;;;;;;;4.43;1.33;;;;;;;8.69;47.99;102412.78;2102335;28;20131;-79
2022/03/14 00:59:41;;;;;;;1.85;1.23;;;;;;;8.69;47.93;102416.31;2104784;28;20434;-79
2022/03/14 01:01:05;;;;;;;5.93;1.40;;;;;;;8.69;48.10;102418.06;2102489;28;20171;-79
2022/03/14 01:02:27;;;;;;;3.55;1.20;;;;;;;8.66;48.14;102418.78;2110859;28;20139;-79
2022/03/14 01:03:50;;;;;;;6.18;2.08;;;;;;;8.67;48.05;102422.31;2113409;28;20055;-79
2022/03/14 01:05:13;;;;;;;2.58;1.30;;;;;;;8.65;48.04;102424.91;2105018;28;20131;-79
2022/03/14 01:06:36;;;;;;;4.05;1.52;;;;;;;8.64;48.19;102422.19;2104947;28;20138;-79
2022/03/14 01:08:00;;;;;;;3.80;1.55;;;;;;;8.63;48.00;102418.66;2093899;28;20466;-79
2022/03/14 01:09:22;;;;;;;4.18;1.70;;;;;;;8.61;48.05;102422.03;2100237;28;20044;-79
2022/03/14 01:10:47;;;;;;;3.85;1.52;;;;;;;8.64;48.09;102419.56;2102475;28;20140;-79
2022/03/14 01:12:10;;;;;;;3.63;1.33;;;;;;;8.65;48.08;102416.09;2105185;28;20056;-79
2022/03/14 01:13:32;;;;;;;2.72;1.30;;;;;;;8.68;47.86;102414.50;2119371;27;20429;-79
2022/03/14 01:14:57;;;;;;;7.15;2.55;;;;;;;8.69;47.94;102425.94;2107359;28;20529;-79
2022/03/14 01:16:19;;;;;;;4.13;2.03;;;;;;;8.71;48.17;102426.94;2102422;28;20048;-79
2022/03/14 01:17:42;;;;;;;5.43;2.17;;;;;;;8.71;48.07;102416.41;2110720;28;20084;-79
2022/03/14 01:19:03;;;;;;;3.33;1.90;;;;;;;8.74;48.14;102424.44;2107403;28;20048;-79
2022/03/14 01:20:26;;;;;;;5.97;1.85;;;;;;;8.75;48.13;102426.25;2101997;28;20155;-79
2022/03/14 01:21:49;;;;;;;3.00;1.50;;;;;;;8.77;48.11;102416.72;2102463;28;20089;-79
2022/03/14 01:23:12;;;;;;;4.10;1.77;;;;;;;8.78;48.09;102411.53;2093949;28;20134;-79
2022/03/14 01:24:38;;;;;;;2.55;1.40;;;;;;;8.78;48.14;102411.53;2108503;28;20055;-79
2022/03/14 01:26:01;;;;;;;2.38;1.30;;;;;;;8.80;48.05;102419.47;2113618;28;20050;-79
2022/03/14 01:27:23;;;;;;;3.72;1.67;;;;;;;8.79;48.22;102408.03;2113219;28;20375;-79
2022/03/14 01:28:48;;;;;;;2.70;1.00;;;;;;;8.78;48.44;102408.00;2096581;28;20048;-79
2022/03/14 01:30:11;;;;;;;4.18;2.05;;;;;;;8.77;48.31;102407.09;2117195;27;20061;-79
2022/03/14 01:31:36;;;;;;;2.17;1.20;;;;;;;8.75;48.35;102397.28;2107390;28;20078;-80
2022/03/14 01:33:00;;;;;;;5.32;1.55;;;;;;;8.73;48.31;102407.75;2104918;28;20135;-79
2022/03/14 01:34:22;;;;;;;3.97;1.45;;;;;;;8.71;48.38;102406.78;2102309;28;20050;-79
2022/03/14 01:35:45;;;;;;;1.90;0.90;;;;;;;8.69;48.60;102411.06;2102023;28;20047;-79
2022/03/14 01:37:10;;;;;;;2.08;0.95;;;;;;;8.69;48.43;102408.44;2111041;28;20063;-79
2022/03/14 01:38:35;;;;;;;5.10;1.25;;;;;;;8.68;48.57;102408.34;2104411;28;20131;-79
2022/03/14 01:39:56;;;;;;;2.88;1.23;;;;;;;8.68;48.63;102400.44;2102482;28;20520;-80
2022/03/14 01:41:19;;;;;;;1.42;1.00;;;;;;;8.68;48.38;102409.25;2104611;28;20109;-79
2022/03/14 01:42:42;;;;;;;3.58;1.77;;;;;;;8.67;48.47;102401.28;2102284;28;20119;-80
2022/03/14 01:44:06;;;;;;;2.67;1.13;;;;;;;8.67;48.60;102410.06;2109993;28;20094;-80
2022/03/14 01:45:29;;;;;;;2.97;1.35;;;;;;;8.69;48.44;102413.69;2104529;28;20048;-80
2022/03/14 01:46:51;;;;;;;2.85;1.33;;;;;;;8.70;48.44;102402.34;2102546;28;20047;-80
2022/03/14 01:48:13;;;;;;;2.40;1.10;;;;;;;8.73;48.46;102414.72;2101623;28;20044;-80
2022/03/14 01:49:36;;;;;;;1.08;0.90;;;;;;;8.73;48.33;102402.47;2102206;28;20056;-79
2022/03/14 01:50:59;;;;;;;1.50;0.93;;;;;;;8.75;48.38;102405.19;2102039;28;20094;-80
2022/03/14 01:52:21;;;;;;;4.38;1.38;;;;;;;8.77;48.42;102412.34;2102284;28;20115;-79
2022/03/14 01:53:45;;;;;;;4.90;1.58;;;;;;;8.80;48.19;102409.84;2101850;28;20043;-79
2022/03/14 01:55:08;;;;;;;4.78;1.35;;;;;;;8.82;48.48;102403.75;2102211;28;20048;-79
2022/03/14 01:56:30;;;;;;;3.78;1.40;;;;;;;8.83;48.45;102402.94;2093977;28;20045;-79
2022/03/14 01:57:55;;;;;;;3.55;1.30;;;;;;;8.83;48.50;102393.31;2102030;28;20056;-79
2022/03/14 01:59:18;;;;;;;4.32;1.40;;;;;;;8.86;48.24;102411.00;2110899;28;20134;-79
2022/03/14 02:00:41;;;;;;;4.15;1.20;;;;;;;8.86;48.46;102408.38;2112935;28;20047;-79
2022/03/14 02:02:03;;;;;;;4.10;1.52;;;;;;;8.89;48.43;102406.78;2104549;28;20036;-79
2022/03/14 02:03:26;;;;;;;1.30;1.08;;;;;;;8.90;48.48;102410.31;2110325;28;20051;-79
2022/03/14 02:04:49;;;;;;;2.78;1.23;;;;;;;8.89;48.67;102400.59;2104425;28;20047;-79
2022/03/14 02:06:12;;;;;;;3.40;1.38;;;;;;;8.88;48.67;102402.34;2110501;28;20051;-79
2022/03/14 02:07:34;;;;;;;4.60;1.23;;;;;;;8.88;48.61;102394.44;2096053;28;20461;-79
2022/03/14 02:08:58;;;;;;;2.45;1.30;;;;;;;8.89;48.58;102403.25;2101816;28;20079;-79
2022/03/14 02:10:21;;;;;;;4.57;2.10;;;;;;;8.88;48.52;102404.97;2110350;28;20036;-79
2022/03/14 02:11:52;;;;;;;2.88;1.20;;;;;;;8.90;48.29;102405.94;2104421;28;20056;-79
2022/03/14 02:13:15;;;;;;;1.35;1.05;;;;;;;8.91;48.26;102402.50;2105428;28;20055;-79
2022/03/14 02:14:39;;;;;;;3.17;1.35;;;;;;;8.92;48.28;102406.94;2112866;28;20071;-79
2022/03/14 02:16:02;;;;;;;1.83;1.00;;;;;;;8.92;48.08;102409.56;2104553;28;20062;-80
2022/03/14 02:17:24;;;;;;;3.33;1.20;;;;;;;8.95;47.95;102406.16;2112922;28;20051;-79
2022/03/14 02:18:47;;;;;;;4.57;1.63;;;;;;;8.94;48.14;102402.63;2104227;28;20072;-79
2022/03/14 02:20:12;;;;;;;2.05;0.93;;;;;;;8.94;48.20;102407.91;2109683;28;20075;-79
2022/03/14 02:21:35;;;;;;;1.83;1.00;;;;;;;8.94;48.33;102402.63;2096294;28;20036;-78
2022/03/14 02:22:58;;;;;;;2.08;1.20;;;;;;;8.93;48.07;102408.72;2107462;28;20039;-79
2022/03/14 02:24:19;;;;;;;3.88;1.55;;;;;;;8.93;48.21;102411.34;2104279;28;20127;-78
2022/03/14 02:25:49;;;;;;;1.83;1.40;;;;;;;8.93;48.26;102410.44;2093166;28;20052;-78
2022/03/14 02:27:14;;;;;;;1.92;1.40;;;;;;;8.92;48.16;102411.31;2101995;28;20081;-78
2022/03/14 02:28:36;;;;;;;1.23;1.00;;;;;;;8.93;47.97;102410.44;2102482;28;20047;-78
2022/03/14 02:29:57;;;;;;;2.47;1.40;;;;;;;8.94;47.79;102409.63;2101530;28;20151;-78
2022/03/14 02:31:20;;;;;;;2.58;1.08;;;;;;;8.98;47.72;102414.22;2109957;28;20071;-79
2022/03/14 02:32:43;;;;;;;1.48;0.93;;;;;;;9.00;47.55;102417.81;2104201;28;20040;-78
2022/03/14 02:34:05;;;;;;;2.08;1.05;;;;;;;9.01;47.79;102412.63;2110215;28;20138;-79
2022/03/14 02:35:28;;;;;;;2.38;1.15;;;;;;;9.04;47.55;102417.16;2104029;28;20048;-78
2022/03/14 02:36:51;;;;;;;6.40;1.33;;;;;;;9.04;47.71;102409.25;2101795;28;20514;-79
2022/03/14 02:38:16;;;;;;;2.72;1.30;;;;;;;9.06;47.79;102408.47;2109563;28;20436;-78
2022/03/14 02:39:39;;;;;;;3.20;1.15;;;;;;;9.08;47.90;102416.47;2104491;28;20047;-79
2022/03/14 02:41:03;;;;;;;4.32;1.38;;;;;;;9.07;47.85;102410.28;2104481;28;20047;-78
2022/03/14 02:42:26;;;;;;;2.90;1.20;;;;;;;9.05;47.65;102411.06;2093762;28;20040;-78
2022/03/14 02:43:48;;;;;;;2.65;1.45;;;;;;;9.04;47.89;102411.88;2107324;28;20041;-78
2022/03/14 02:45:11;;;;;;;2.72;1.30;;;;;;;9.05;47.85;102413.69;2104170;28;20048;-78
2022/03/14 02:46:34;;;;;;;2.75;1.17;;;;;;;9.05;47.82;102417.25;2101564;28;20593;-78
2022/03/14 02:47:56;;;;;;;2.33;1.10;;;;;;;9.07;47.79;102412.03;2110114;28;20586;-78
2022/03/14 02:49:18;;;;;;;4.07;1.35;;;;;;;9.06;47.93;102408.47;2104009;28;20499;-78
2022/03/14 02:50:42;;;;;;;4.35;1.70;;;;;;;9.09;47.74;102413.00;2109666;28;20036;-78
2022/03/14 02:52:04;;;;;;;4.90;1.50;;;;;;;9.10;47.62;102412.19;2112557;28;20186;-79
2022/03/14 02:53:26;;;;;;;2.40;1.30;;;;;;;9.09;47.79;102410.38;2104049;28;20575;-78
2022/03/14 02:54:49;;;;;;;2.97;1.30;;;;;;;9.08;47.49;102401.56;2101471;28;20047;-78
2022/03/14 02:56:12;;;;;;;3.35;1.40;;;;;;;9.07;47.81;102404.13;2101322;28;20449;-78
2022/03/14 02:57:34;;;;;;;5.28;1.55;;;;;;;9.08;47.95;102406.84;2106634;28;20059;-78
2022/03/14 02:58:57;;;;;;;1.88;0.93;;;;;;;9.07;47.92;102398.84;2109840;28;20467;-78
2022/03/14 03:00:21;;;;;;;4.05;1.42;;;;;;;9.08;47.84;102400.66;2106573;28;20047;-78
2022/03/14 03:01:43;;;;;;;3.40;1.50;;;;;;;9.07;47.71;102406.75;2103975;28;20116;-78
2022/03/14 03:03:07;;;;;;;1.50;1.10;;;;;;;9.07;47.84;102401.47;2101190;28;20127;-78
2022/03/14 03:04:29;;;;;;;2.40;1.10;;;;;;;9.07;47.71;102404.13;2109975;28;20063;-78
2022/03/14 03:05:54;;;;;;;2.90;1.40;;;;;;;9.09;47.48;102410.38;2103878;28;20076;-78
2022/03/14 03:07:18;;;;;;;1.80;1.20;;;;;;;9.10;47.56;102404.28;2102115;28;20087;-78
2022/03/14 03:08:44;;;;;;;2.70;1.08;;;;;;;9.11;47.70;102398.19;2110206;28;20483;-78
2022/03/14 03:10:07;;;;;;;5.22;1.90;;;;;;;9.10;47.34;102399.91;2104316;28;20546;-78
2022/03/14 03:11:30;;;;;;;2.25;1.45;;;;;;;9.13;47.69;102407.03;2104114;28;20048;-78
2022/03/14 03:12:52;;;;;;;3.63;1.85;;;;;;;9.12;47.63;102406.13;2109613;28;20039;-79
2022/03/14 03:14:15;;;;;;;2.47;1.60;;;;;;;9.16;47.80;102402.84;2103798;28;20085;-79
2022/03/14 03:15:38;;;;;;;3.50;1.70;;;;;;;9.18;47.50;102406.47;2112280;28;20043;-79
2022/03/14 03:17:01;;;;;;;3.58;1.48;;;;;;;9.18;47.32;102406.47;2104132;28;20471;-79
2022/03/14 03:18:24;;;;;;;2.25;1.33;;;;;;;9.22;47.72;102407.50;2109849;28;20059;-78
2022/03/14 03:19:46;;;;;;;3.70;1.35;;;;;;;9.23;47.59;102403.13;2103710;28;20043;-79
2022/03/14 03:21:11;;;;;;;4.45;1.40;;;;;;;9.24;47.90;102400.56;2118250;27;20050;-79
2022/03/14 03:22:33;;;;;;;3.38;1.48;;;;;;;9.23;47.92;102403.13;2106353;28;20073;-78
2022/03/14 03:23:55;;;;;;;3.78;1.40;;;;;;;9.22;48.10;102406.59;2103776;28;20435;-79
2022/03/14 03:25:18;;;;;;;3.20;1.35;;;;;;;9.21;48.35;102418.84;2101014;28;20047;-79
2022/03/14 03:26:39;;;;;;;3.47;1.55;;;;;;;9.23;48.42;102418.94;2101336;28;20574;-78
2022/03/14 03:28:02;;;;;;;3.63;1.50;;;;;;;9.23;48.57;102417.22;2109330;28;20438;-78
2022/03/14 03:29:25;;;;;;;4.22;1.50;;;;;;;9.23;48.56;102417.22;2112080;28;20055;-78
2022/03/14 03:30:47;;;;;;;4.93;1.48;;;;;;;9.23;48.56;102419.84;2106452;28;20048;-78
2022/03/14 03:32:10;;;;;;;3.42;1.88;;;;;;;9.23;48.65;102418.94;2103766;28;20066;-78
2022/03/14 03:33:31;;;;;;;4.18;1.60;;;;;;;9.18;48.95;102406.47;2101004;28;20043;-78
2022/03/14 03:34:54;;;;;;;3.95;1.40;;;;;;;9.17;48.99;102417.81;2095233;28;20516;-78
2022/03/14 03:36:19;;;;;;;3.03;1.50;;;;;;;9.17;48.65;102414.28;2107095;28;20043;-78
2022/03/14 03:37:41;;;;;;;3.38;1.50;;;;;;;9.15;48.99;102418.56;2103783;28;20130;-78
2022/03/14 03:39:04;;;;;;;2.67;1.02;;;;;;;9.14;49.06;102420.28;2100841;28;20076;-78
2022/03/14 03:40:27;;;;;;;3.75;1.83;;;;;;;9.13;49.06;102413.22;2101081;28;20417;-78
2022/03/14 03:41:50;;;;;;;3.28;1.60;;;;;;;9.10;49.28;102421.00;2101217;28;20064;-78
2022/03/14 03:43:11;;;;;;;4.57;1.70;;;;;;;9.10;49.22;102420.09;2101083;28;20078;-78
2022/03/14 03:44:34;;;;;;;4.03;2.35;;;;;;;9.06;49.59;102418.13;2109275;28;20131;-78
2022/03/14 03:45:57;;;;;;;2.25;1.00;;;;;;;9.03;49.55;102423.25;2114772;28;20051;-78
2022/03/14 03:47:20;;;;;;;3.58;1.45;;;;;;;8.96;49.74;102416.78;2095325;28;20064;-79
2022/03/14 03:48:42;;;;;;;3.08;1.40;;;;;;;8.94;49.84;102426.34;2098470;28;20087;-79
2022/03/14 03:50:06;;;;;;;4.55;1.75;;;;;;;8.91;49.61;102423.56;2101003;28;20402;-78
2022/03/14 03:51:30;;;;;;;4.00;1.20;;;;;;;8.89;49.82;102419.94;2103663;28;20036;-78
2022/03/14 03:52:53;;;;;;;3.30;1.60;;;;;;;8.84;49.69;102428.44;2101206;28;20044;-78
2022/03/14 03:54:15;;;;;;;3.75;1.63;;;;;;;8.80;49.70;102428.28;2109537;28;20044;-78
2022/03/14 03:55:38;;;;;;;3.45;1.48;;;;;;;8.79;49.83;102437.00;2103552;28;20505;-78
2022/03/14 03:57:00;;;;;;;2.70;1.63;;;;;;;8.79;49.99;102423.84;2101120;28;20044;-78
2022/03/14 03:58:23;;;;;;;3.22;1.75;;;;;;;8.80;50.07;102425.66;2109364;28;20112;-78
2022/03/14 03:59:45;;;;;;;4.72;1.80;;;;;;;8.85;49.96;102430.25;2103566;28;20036;-78
2022/03/14 04:01:08;;;;;;;3.88;1.50;;;;;;;8.86;50.05;102425.03;2109407;28;20386;-78
2022/03/14 04:02:36;;;;;;;3.53;1.40;;;;;;;8.90;49.95;102426.13;2112253;28;20051;-78
2022/03/14 04:03:59;;;;;;;5.90;2.03;;;;;;;8.93;49.90;102435.06;2104209;28;20105;-78
2022/03/14 04:05:22;;;;;;;4.60;1.77;;;;;;;8.95;49.71;102429.88;2109586;28;20047;-78
2022/03/14 04:06:47;;;;;;;4.18;1.33;;;;;;;8.99;49.76;102434.47;2106318;28;20507;-79
2022/03/14 04:08:10;;;;;;;3.90;1.75;;;;;;;8.98;49.87;102430.03;2102370;28;20122;-79
2022/03/14 04:09:33;;;;;;;4.07;1.55;;;;;;;9.01;50.04;102424.91;2103321;28;20167;-79
2022/03/14 04:10:58;;;;;;;3.22;1.80;;;;;;;9.02;50.05;102426.72;2094875;28;20512;-79
2022/03/14 04:12:22;;;;;;;4.50;1.92;;;;;;;9.01;50.00;102432.78;2101228;28;20106;-79
2022/03/14 04:13:45;;;;;;;2.13;1.55;;;;;;;9.00;50.27;102421.34;2105580;28;20086;-78
2022/03/14 04:15:09;;;;;;;4.68;1.27;;;;;;;9.01;50.33;102425.81;2105275;28;20134;-79
2022/03/14 04:16:32;;;;;;;3.38;1.83;;;;;;;9.01;50.38;102420.53;2111574;28;20036;-79
2022/03/14 04:17:57;;;;;;;2.72;1.48;;;;;;;9.02;50.31;102416.16;2105463;28;20461;-79
2022/03/14 04:19:19;;;;;;;3.30;1.73;;;;;;;9.02;50.49;102422.34;2111690;28;20064;-79
2022/03/14 04:20:41;;;;;;;1.85;1.30;;;;;;;9.02;50.42;102419.72;2105334;28;20136;-79
2022/03/14 04:22:07;;;;;;;4.40;1.20;;;;;;;9.04;50.45;102420.69;2102925;28;20052;-78
2022/03/14 04:23:31;;;;;;;3.20;1.60;;;;;;;9.04;50.34;102422.44;2111682;28;20047;-79
2022/03/14 04:24:54;;;;;;;4.57;2.13;;;;;;;9.06;50.56;102418.13;2105462;28;20411;-79
2022/03/14 04:26:17;;;;;;;3.03;1.50;;;;;;;9.05;50.23;102421.59;2105018;28;20127;-79
2022/03/14 04:27:40;;;;;;;4.40;1.80;;;;;;;9.04;50.08;102420.69;2111138;28;20463;-79
2022/03/14 04:29:03;;;;;;;5.38;1.60;;;;;;;9.03;50.12;102425.88;2113595;28;20092;-79
2022/03/14 04:30:26;;;;;;;4.20;1.63;;;;;;;9.01;50.00;102417.91;2105278;28;20052;-79
2022/03/14 04:31:47;;;;;;;1.55;0.95;;;;;;;9.03;49.99;102417.97;2111007;28;20053;-79
2022/03/14 04:33:10;;;;;;;2.33;1.40;;;;;;;9.04;50.05;102422.44;2107916;28;20051;-79
2022/03/14 04:34:32;;;;;;;3.95;1.45;;;;;;;9.04;49.97;102425.06;2102558;28;20159;-78
2022/03/14 04:35:54;;;;;;;4.28;1.90;;;;;;;9.04;50.15;102417.16;2102446;28;20447;-78
2022/03/14 04:37:17;;;;;;;4.57;1.90;;;;;;;9.05;50.33;102416.34;2110727;28;20051;-79
2022/03/14 04:38:40;;;;;;;9.32;2.75;;;;;;;9.03;50.37;102424.16;2107521;28;20477;-78
2022/03/14 04:40:03;;;;;;;13.95;3.83;;;;;;;8.99;50.41;102419.53;2110635;28;20162;-78
2022/03/14 04:41:25;;;;;;;8.20;2.85;;;;;;;9.01;50.59;102425.81;2107848;28;20503;-78
2022/03/14 04:42:46;;;;;;;6.80;3.63;;;;;;;9.02;50.61;102427.63;2102474;28;20052;-78
2022/03/14 04:44:09;;;;;;;4.53;2.00;;;;;;;9.04;50.73;102425.97;2110744;28;20139;-78
2022/03/14 04:45:32;;;;;;;7.43;3.75;;;;;;;9.06;50.75;102433.91;2113451;28;20067;-79
2022/03/14 04:46:54;;;;;;;3.88;1.90;;;;;;;9.06;50.76;102426.91;2096759;28;20037;-78
2022/03/14 04:48:17;;;;;;;6.03;3.33;;;;;;;9.06;50.85;102429.56;2100105;28;20159;-78
2022/03/14 04:49:39;;;;;;;7.70;3.60;;;;;;;9.09;51.00;102431.44;2102471;28;20582;-78
2022/03/14 04:51:01;;;;;;;6.65;3.15;;;;;;;9.11;50.94;102435.06;2102269;28;20166;-78
2022/03/14 04:52:25;;;;;;;3.40;2.08;;;;;;;9.10;51.21;102436.81;2102297;28;20107;-78
2022/03/14 04:53:48;;;;;;;6.15;2.25;;;;;;;9.09;51.32;102436.72;2110973;28;20086;-78
2022/03/14 04:55:11;;;;;;;7.10;2.92;;;;;;;9.08;51.30;102438.44;2121759;27;20051;-78
2022/03/14 04:56:33;;;;;;;6.25;2.33;;;;;;;9.08;51.29;102433.19;2115859;28;20131;-78
2022/03/14 04:57:56;;;;;;;4.03;2.03;;;;;;;9.13;51.27;102441.28;2107389;28;20070;-78
2022/03/14 04:59:19;;;;;;;3.70;2.15;;;;;;;9.22;51.33;102444.38;2102277;28;20046;-78
2022/03/14 05:00:42;;;;;;;3.60;1.75;;;;;;;9.34;51.25;102441.41;2111130;28;20078;-78
2022/03/14 05:02:06;;;;;;;4.05;2.03;;;;;;;9.38;51.39;102448.66;2107515;28;20043;-78
2022/03/14 05:03:29;;;;;;;4.22;2.45;;;;;;;9.40;51.02;102452.25;2102643;28;20429;-78
2022/03/14 05:04:52;;;;;;;4.70;2.00;;;;;;;9.41;50.91;102447.06;2102356;28;20134;-78
2022/03/14 05:06:16;;;;;;;4.03;1.75;;;;;;;9.45;50.87;102451.63;2102373;28;20420;-78
2022/03/14 05:07:40;;;;;;;7.82;1.80;;;;;;;9.48;50.85;102454.44;2102397;28;20040;-78
2022/03/14 05:09:05;;;;;;;4.70;2.13;;;;;;;9.48;50.91;102457.06;2111062;28;20146;-78
2022/03/14 05:10:27;;;;;;;3.65;1.55;;;;;;;9.51;50.74;102457.22;2105008;28;20035;-78
2022/03/14 05:11:51;;;;;;;3.10;1.50;;;;;;;9.50;50.63;102455.41;2110594;28;20412;-78
2022/03/14 05:13:12;;;;;;;3.83;2.10;;;;;;;9.51;50.61;102451.97;2096234;28;20052;-78
2022/03/14 05:14:35;;;;;;;2.88;1.58;;;;;;;9.58;50.97;102459.28;2099668;28;20048;-78
2022/03/14 05:15:57;;;;;;;5.03;1.52;;;;;;;9.67;50.88;102448.28;2104907;28;20586;-78
2022/03/14 05:17:19;;;;;;;4.20;1.52;;;;;;;9.79;50.34;102453.22;2102065;28;20056;-78
2022/03/14 05:18:41;;;;;;;2.88;1.60;;;;;;;9.83;50.39;102458.72;2101617;28;20083;-78
2022/03/14 05:20:04;;;;;;;4.30;1.85;;;;;;;9.87;50.26;102459.75;2110395;28;20072;-79
2022/03/14 05:21:27;;;;;;;3.30;1.70;;;;;;;9.88;50.14;102458.91;2104809;28;20052;-78
2022/03/14 05:22:52;;;;;;;3.97;1.70;;;;;;;9.89;50.21;102461.63;2102016;28;20047;-79
2022/03/14 05:24:14;;;;;;;2.88;1.60;;;;;;;9.91;50.39;102465.22;2110814;28;20050;-78
2022/03/14 05:25:39;;;;;;;4.65;1.52;;;;;;;9.93;50.19;102462.66;2104980;28;20499;-78
2022/03/14 05:27:02;;;;;;;6.38;1.92;;;;;;;9.92;50.10;102464.38;2102218;28;20040;-78
2022/03/14 05:28:24;;;;;;;9.32;2.40;;;;;;;9.91;50.14;102454.66;2102167;28;20076;-79
2022/03/14 05:29:46;;;;;;;9.40;3.42;;;;;;;9.95;50.24;102461.00;2101960;28;20040;-78
2022/03/14 05:31:09;;;;;;;15.73;7.22;;;;;;;9.95;50.14;102461.00;2104657;28;20130;-79
2022/03/14 05:32:34;;;;;;;5.93;2.38;;;;;;;9.94;50.19;102456.56;2110981;28;20051;-78
2022/03/14 05:33:56;;;;;;;3.58;1.83;;;;;;;9.95;49.98;102466.28;2113170;28;20075;-79
2022/03/14 05:35:19;;;;;;;5.65;2.80;;;;;;;9.96;50.07;102469.00;2107475;28;20081;-78
2022/03/14 05:36:42;;;;;;;9.65;5.20;;;;;;;9.99;50.12;102465.56;2110339;28;20047;-78
2022/03/14 05:38:06;;;;;;;6.47;3.00;;;;;;;10.05;50.25;102472.84;2107132;28;20043;-78
2022/03/14 05:39:29;;;;;;;4.53;2.70;;;;;;;10.05;50.17;102468.47;2102360;28;20081;-78
2022/03/14 05:40:52;;;;;;;3.55;1.83;;;;;;;10.07;50.04;102473.84;2102100;28;20040;-78
2022/03/14 05:42:15;;;;;;;9.82;4.10;;;;;;;10.08;49.98;102468.63;2110693;28;20414;-78
2022/03/14 05:43:38;;;;;;;10.77;4.90;;;;;;;10.09;49.85;102469.53;2096248;28;20207;-79
2022/03/14 05:45:00;;;;;;;7.13;3.15;;;;;;;10.11;49.93;102465.25;2107857;28;20074;-78
2022/03/14 05:46:23;;;;;;;3.60;2.30;;;;;;;10.13;49.83;102472.38;2096187;28;20045;-78
2022/03/14 05:47:44;;;;;;;4.68;2.55;;;;;;;10.16;49.76;102467.25;2093962;28;20076;-79
2022/03/14 05:49:07;;;;;;;3.97;1.73;;;;;;;10.17;49.66;102463.81;2099504;28;20044;-79
2022/03/14 05:50:28;;;;;;;5.50;2.33;;;;;;;10.24;49.67;102462.34;2102166;28;20044;-78
2022/03/14 05:51:52;;;;;;;5.40;2.72;;;;;;;10.33;49.58;102475.94;2112887;28;20078;-78
2022/03/14 05:53:16;;;;;;;3.30;1.77;;;;;;;10.34;49.45;102469.81;2104595;28;20044;-79
2022/03/14 05:54:39;;;;;;;3.63;2.72;;;;;;;10.30;49.39;102466.16;2107403;28;20448;-79
2022/03/14 05:56:03;;;;;;;4.32;2.25;;;;;;;10.28;49.14;102466.91;2107134;28;20134;-79
2022/03/14 05:57:26;;;;;;;6.03;2.15;;;;;;;10.25;49.22;102472.94;2104607;28;20135;-78
2022/03/14 05:58:48;;;;;;;4.60;2.33;;;;;;;10.24;49.04;102471.13;2104521;28;20121;-79
2022/03/14 06:00:12;;;;;;;3.90;1.77;;;;;;;10.24;49.22;102471.13;2107111;28;20052;-78
2022/03/14 06:01:40;;;;;;;3.70;1.60;;;;;;;10.21;49.02;102471.03;2111319;28;20043;-78
2022/03/14 06:03:03;;;;;;;3.85;1.95;;;;;;;10.20;49.46;102471.84;2104904;28;20588;-78
2022/03/14 06:04:26;;;;;;;1.20;0.77;;;;;;;10.02;50.15;102473.63;2101624;28;20048;-78
2022/03/14 06:05:49;;;;;;;2.15;1.52;;;;;;;9.74;51.23;102491.66;2110224;28;20599;-79
2022/03/14 06:07:13;;;;;;;3.38;1.92;;;;;;;9.47;51.89;102486.88;2106956;28;20059;-79
2022/03/14 06:08:37;;;;;;;6.30;2.15;;;;;;;9.34;52.59;102492.41;2112886;28;20051;-78
2022/03/14 06:09:58;;;;;;;2.83;1.67;;;;;;;9.27;53.23;102486.75;2104395;28;20566;-78
2022/03/14 06:11:21;;;;;;;5.05;2.50;;;;;;;9.26;53.39;102492.84;2109893;28;20153;-79
2022/03/14 06:12:43;;;;;;;3.60;1.77;;;;;;;9.26;53.95;102485.84;2112783;28;20051;-78
2022/03/14 06:14:06;;;;;;;5.13;2.20;;;;;;;9.22;54.09;102480.38;2104498;28;20488;-79
2022/03/14 06:15:29;;;;;;;5.25;1.70;;;;;;;9.14;54.88;102490.53;2101757;28;20048;-78
2022/03/14 06:16:50;;;;;;;2.58;1.60;;;;;;;9.09;55.35;102492.03;2104316;28;20044;-79
2022/03/14 06:18:13;;;;;;;5.55;2.40;;;;;;;9.11;55.23;102480.75;2118521;27;20051;-78
2022/03/14 06:19:36;;;;;;;8.30;2.63;;;;;;;9.26;55.36;102487.59;2106895;28;20571;-79
2022/03/14 06:20:58;;;;;;;4.20;2.20;;;;;;;9.66;55.34;102487.75;2101613;28;20056;-79
2022/03/14 06:22:23;;;;;;;4.93;1.77;;;;;;;10.25;54.66;102485.25;2101935;28;20051;-78
2022/03/14 06:23:47;;;;;;;2.88;1.25;;;;;;;10.81;53.88;102490.38;2101815;28;20044;-79
2022/03/14 06:25:09;;;;;;;4.97;1.52;;;;;;;11.23;52.81;102485.03;2104380;28;20101;-78
2022/03/14 06:26:34;;;;;;;2.75;1.60;;;;;;;11.51;52.31;102486.22;2101907;28;20046;-79
2022/03/14 06:27:57;;;;;;;30.27;8.23;;;;;;;11.75;51.68;102486.28;2093889;28;20484;-79
2022/03/14 06:29:20;;;;;;;5.43;2.35;;;;;;;11.74;51.47;102487.16;2116032;27;20069;-78